sensor_id;sensor_type;location;lat;lon;timestamp;temperature;humidity
53752;DHT22;41095;53.090;6.692;2023-05-10T00:01:38;14.30;99.90
53752;DHT22;41095;53.090;6.692;2023-05-10T00:04:03;14.20;99.90
53752;DHT22;41095;53.090;6.692;2023-05-10T00:06:29;14.10;99.90
53752;DHT22;41095;53.090;6.692;2023-05-10T00:08:55;14.10;99.90
53752;DHT22;41095;53.090;6.692;2023-05-10T00:11:21;14.00;99.90
53752;DHT22;41095;53.090;6.692;2023-05-10T00:13:47;13.90;99.90
53752;DHT22;41095;53.090;6.692;2023-05-10T00:16:13;13.90;99.90
53752;DHT22;41095;53.090;6.692;2023-05-10T00:18:39;13.90;99.90
53752;DHT22;41095;53.090;6.692;2023-05-10T00:21:05;13.80;99.90
53752;DHT22;41095;53.090;6.692;2023-05-10T00:23:31;13.80;99.90
53752;DHT22;41095;53.090;6.692;2023-05-10T00:25:57;13.80;99.90
53752;DHT22;41095;53.090;6.692;2023-05-10T00:28:23;13.70;99.90
53752;DHT22;41095;53.090;6.692;2023-05-10T00:30:49;13.70;99.90
53752;DHT22;41095;53.090;6.692;2023-05-10T00:33:14;13.70;99.90
53752;DHT22;41095;53.090;6.692;2023-05-10T00:35:40;13.70;99.90
53752;DHT22;41095;53.090;6.692;2023-05-10T00:38:06;13.70;99.90
53752;DHT22;41095;53.090;6.692;2023-05-10T00:40:32;13.70;99.90
53752;DHT22;41095;53.090;6.692;2023-05-10T00:42:58;13.70;99.90
53752;DHT22;41095;53.090;6.692;2023-05-10T00:45:25;13.70;99.90
53752;DHT22;41095;53.090;6.692;2023-05-10T00:47:52;13.80;99.90
53752;DHT22;41095;53.090;6.692;2023-05-10T00:50:24;13.80;99.90
53752;DHT22;41095;53.090;6.692;2023-05-10T00:52:50;13.70;99.90
53752;DHT22;41095;53.090;6.692;2023-05-10T00:55:15;13.80;99.90
53752;DHT22;41095;53.090;6.692;2023-05-10T00:57:42;13.70;99.90
53752;DHT22;41095;53.090;6.692;2023-05-10T01:00:08;13.80;99.90
53752;DHT22;41095;53.090;6.692;2023-05-10T01:02:35;13.70;99.90
53752;DHT22;41095;53.090;6.692;2023-05-10T01:05:02;13.70;99.90
53752;DHT22;41095;53.090;6.692;2023-05-10T01:07:29;13.70;99.90
53752;DHT22;41095;53.090;6.692;2023-05-10T01:09:55;13.70;99.90
53752;DHT22;41095;53.090;6.692;2023-05-10T01:12:21;13.70;99.90
53752;DHT22;41095;53.090;6.692;2023-05-10T01:14:48;13.60;99.90
53752;DHT22;41095;53.090;6.692;2023-05-10T01:17:14;13.70;99.90
53752;DHT22;41095;53.090;6.692;2023-05-10T01:19:40;13.70;99.90
53752;DHT22;41095;53.090;6.692;2023-05-10T01:35:41;13.60;99.90
53752;DHT22;41095;53.090;6.692;2023-05-10T01:38:29;13.60;99.90
53752;DHT22;41095;53.090;6.692;2023-05-10T01:41:25;13.70;99.90
53752;DHT22;41095;53.090;6.692;2023-05-10T01:44:01;13.70;99.90
53752;DHT22;41095;53.090;6.692;2023-05-10T01:46:40;13.70;99.90
53752;DHT22;41095;53.090;6.692;2023-05-10T01:49:17;13.70;99.90
53752;DHT22;41095;53.090;6.692;2023-05-10T01:51:50;13.70;99.90
53752;DHT22;41095;53.090;6.692;2023-05-10T01:54:19;13.70;99.90
53752;DHT22;41095;53.090;6.692;2023-05-10T01:56:48;13.60;99.90
53752;DHT22;41095;53.090;6.692;2023-05-10T01:59:18;13.70;99.90
53752;DHT22;41095;53.090;6.692;2023-05-10T02:01:45;13.60;99.90
53752;DHT22;41095;53.090;6.692;2023-05-10T02:04:15;13.60;99.90
53752;DHT22;41095;53.090;6.692;2023-05-10T02:06:43;13.50;99.90
53752;DHT22;41095;53.090;6.692;2023-05-10T02:09:11;13.50;99.90
53752;DHT22;41095;53.090;6.692;2023-05-10T02:11:43;13.50;99.90
53752;DHT22;41095;53.090;6.692;2023-05-10T02:14:10;13.40;99.90
53752;DHT22;41095;53.090;6.692;2023-05-10T02:16:38;13.40;99.90
53752;DHT22;41095;53.090;6.692;2023-05-10T02:19:05;13.40;99.90
53752;DHT22;41095;53.090;6.692;2023-05-10T02:21:33;13.40;99.90
53752;DHT22;41095;53.090;6.692;2023-05-10T02:24:01;13.50;99.90
53752;DHT22;41095;53.090;6.692;2023-05-10T02:26:29;13.40;99.90
53752;DHT22;41095;53.090;6.692;2023-05-10T02:28:57;13.40;99.90
53752;DHT22;41095;53.090;6.692;2023-05-10T02:31:23;13.40;99.90
53752;DHT22;41095;53.090;6.692;2023-05-10T02:33:51;13.50;99.90
53752;DHT22;41095;53.090;6.692;2023-05-10T02:36:17;13.50;99.90
53752;DHT22;41095;53.090;6.692;2023-05-10T02:38:44;13.50;99.90
53752;DHT22;41095;53.090;6.692;2023-05-10T02:41:11;13.50;99.90
53752;DHT22;41095;53.090;6.692;2023-05-10T02:43:37;13.40;99.90
53752;DHT22;41095;53.090;6.692;2023-05-10T02:46:05;13.40;99.90
53752;DHT22;41095;53.090;6.692;2023-05-10T02:48:31;13.40;99.90
53752;DHT22;41095;53.090;6.692;2023-05-10T02:51:03;13.50;99.90
53752;DHT22;41095;53.090;6.692;2023-05-10T02:53:34;13.40;99.90
53752;DHT22;41095;53.090;6.692;2023-05-10T02:56:05;13.40;99.90
53752;DHT22;41095;53.090;6.692;2023-05-10T02:58:32;13.50;99.90
53752;DHT22;41095;53.090;6.692;2023-05-10T03:01:00;13.50;99.90
53752;DHT22;41095;53.090;6.692;2023-05-10T03:03:26;13.50;99.90
53752;DHT22;41095;53.090;6.692;2023-05-10T03:05:51;13.50;99.90
53752;DHT22;41095;53.090;6.692;2023-05-10T03:08:21;13.50;99.90
53752;DHT22;41095;53.090;6.692;2023-05-10T03:16:42;13.30;99.90
53752;DHT22;41095;53.090;6.692;2023-05-10T03:19:24;13.30;99.90
53752;DHT22;41095;53.090;6.692;2023-05-10T03:21:53;13.20;99.90
53752;DHT22;41095;53.090;6.692;2023-05-10T03:24:23;13.20;99.90
53752;DHT22;41095;53.090;6.692;2023-05-10T03:26:55;13.20;99.90
53752;DHT22;41095;53.090;6.692;2023-05-10T03:29:22;13.20;99.90
53752;DHT22;41095;53.090;6.692;2023-05-10T03:31:49;13.30;99.90
53752;DHT22;41095;53.090;6.692;2023-05-10T03:34:15;13.30;99.90
53752;DHT22;41095;53.090;6.692;2023-05-10T03:36:41;13.30;99.90
53752;DHT22;41095;53.090;6.692;2023-05-10T03:39:07;13.30;99.90
53752;DHT22;41095;53.090;6.692;2023-05-10T03:41:33;13.30;99.90
53752;DHT22;41095;53.090;6.692;2023-05-10T03:43:58;13.30;99.90
53752;DHT22;41095;53.090;6.692;2023-05-10T03:46:24;13.30;99.90
53752;DHT22;41095;53.090;6.692;2023-05-10T03:48:49;13.30;99.90
53752;DHT22;41095;53.090;6.692;2023-05-10T03:51:15;13.30;99.90
53752;DHT22;41095;53.090;6.692;2023-05-10T03:53:41;13.30;99.90
53752;DHT22;41095;53.090;6.692;2023-05-10T03:56:06;13.30;99.90
53752;DHT22;41095;53.090;6.692;2023-05-10T03:58:32;13.30;99.90
53752;DHT22;41095;53.090;6.692;2023-05-10T04:00:58;13.30;99.90
53752;DHT22;41095;53.090;6.692;2023-05-10T04:03:23;13.30;99.90
53752;DHT22;41095;53.090;6.692;2023-05-10T04:05:59;13.20;99.90
53752;DHT22;41095;53.090;6.692;2023-05-10T04:08:25;13.20;99.90
53752;DHT22;41095;53.090;6.692;2023-05-10T04:10:51;13.20;99.90
53752;DHT22;41095;53.090;6.692;2023-05-10T04:13:16;13.20;99.90
53752;DHT22;41095;53.090;6.692;2023-05-10T04:15:42;13.20;99.90
53752;DHT22;41095;53.090;6.692;2023-05-10T04:18:09;13.20;99.90
53752;DHT22;41095;53.090;6.692;2023-05-10T04:20:35;13.20;99.90
53752;DHT22;41095;53.090;6.692;2023-05-10T04:23:01;13.20;99.90
53752;DHT22;41095;53.090;6.692;2023-05-10T04:25:26;13.20;99.90
53752;DHT22;41095;53.090;6.692;2023-05-10T04:27:52;13.20;99.90
53752;DHT22;41095;53.090;6.692;2023-05-10T04:30:18;13.20;99.90
53752;DHT22;41095;53.090;6.692;2023-05-10T04:32:43;13.20;99.90
53752;DHT22;41095;53.090;6.692;2023-05-10T04:35:09;13.10;99.90
53752;DHT22;41095;53.090;6.692;2023-05-10T04:37:36;13.20;99.90
53752;DHT22;41095;53.090;6.692;2023-05-10T04:40:02;13.20;99.90
53752;DHT22;41095;53.090;6.692;2023-05-10T04:42:31;13.10;99.90
53752;DHT22;41095;53.090;6.692;2023-05-10T04:48:38;13.10;99.90
53752;DHT22;41095;53.090;6.692;2023-05-10T04:51:03;13.20;99.90
53752;DHT22;41095;53.090;6.692;2023-05-10T04:53:30;13.20;99.90
53752;DHT22;41095;53.090;6.692;2023-05-10T04:55:56;13.20;99.90
53752;DHT22;41095;53.090;6.692;2023-05-10T04:58:21;13.20;99.90
53752;DHT22;41095;53.090;6.692;2023-05-10T05:00:47;13.20;99.90
53752;DHT22;41095;53.090;6.692;2023-05-10T05:03:13;13.20;99.90
53752;DHT22;41095;53.090;6.692;2023-05-10T05:05:38;13.20;99.90
53752;DHT22;41095;53.090;6.692;2023-05-10T05:08:04;13.20;99.90
53752;DHT22;41095;53.090;6.692;2023-05-10T05:10:30;13.10;99.90
53752;DHT22;41095;53.090;6.692;2023-05-10T05:12:55;13.10;99.90
53752;DHT22;41095;53.090;6.692;2023-05-10T05:15:21;13.10;99.90
53752;DHT22;41095;53.090;6.692;2023-05-10T05:17:47;13.10;99.90
53752;DHT22;41095;53.090;6.692;2023-05-10T05:20:13;13.10;99.90
53752;DHT22;41095;53.090;6.692;2023-05-10T05:22:38;13.10;99.90
53752;DHT22;41095;53.090;6.692;2023-05-10T05:25:04;13.20;99.90
53752;DHT22;41095;53.090;6.692;2023-05-10T05:27:31;13.20;99.90
53752;DHT22;41095;53.090;6.692;2023-05-10T05:29:57;13.10;99.90
53752;DHT22;41095;53.090;6.692;2023-05-10T05:32:24;13.10;99.90
53752;DHT22;41095;53.090;6.692;2023-05-10T05:34:50;13.10;99.90
53752;DHT22;41095;53.090;6.692;2023-05-10T05:37:17;13.20;99.90
53752;DHT22;41095;53.090;6.692;2023-05-10T05:39:43;13.20;99.90
53752;DHT22;41095;53.090;6.692;2023-05-10T05:42:09;13.10;99.90
53752;DHT22;41095;53.090;6.692;2023-05-10T05:44:35;13.10;99.90
53752;DHT22;41095;53.090;6.692;2023-05-10T05:47:01;13.20;99.90
53752;DHT22;41095;53.090;6.692;2023-05-10T05:49:27;13.20;99.90
53752;DHT22;41095;53.090;6.692;2023-05-10T05:51:53;13.20;99.90
53752;DHT22;41095;53.090;6.692;2023-05-10T05:54:18;13.20;99.90
53752;DHT22;41095;53.090;6.692;2023-05-10T05:56:44;13.30;99.90
53752;DHT22;41095;53.090;6.692;2023-05-10T05:59:13;13.20;99.90
53752;DHT22;41095;53.090;6.692;2023-05-10T06:01:39;13.20;99.90
53752;DHT22;41095;53.090;6.692;2023-05-10T06:04:04;13.20;99.90
53752;DHT22;41095;53.090;6.692;2023-05-10T06:06:30;13.10;99.90
53752;DHT22;41095;53.090;6.692;2023-05-10T06:08:57;13.10;99.90
53752;DHT22;41095;53.090;6.692;2023-05-10T06:11:23;13.10;99.90
53752;DHT22;41095;53.090;6.692;2023-05-10T06:13:49;13.10;99.90
53752;DHT22;41095;53.090;6.692;2023-05-10T06:16:14;13.10;99.90
53752;DHT22;41095;53.090;6.692;2023-05-10T06:18:40;13.10;99.90
53752;DHT22;41095;53.090;6.692;2023-05-10T06:21:06;13.10;99.90
53752;DHT22;41095;53.090;6.692;2023-05-10T06:23:32;13.20;99.90
53752;DHT22;41095;53.090;6.692;2023-05-10T06:25:58;13.10;99.90
53752;DHT22;41095;53.090;6.692;2023-05-10T06:28:23;13.10;99.90
53752;DHT22;41095;53.090;6.692;2023-05-10T06:30:49;13.10;99.90
53752;DHT22;41095;53.090;6.692;2023-05-10T06:33:15;13.20;99.90
53752;DHT22;41095;53.090;6.692;2023-05-10T06:35:41;13.20;99.90
53752;DHT22;41095;53.090;6.692;2023-05-10T06:38:07;13.20;99.90
53752;DHT22;41095;53.090;6.692;2023-05-10T06:40:33;13.30;99.90
53752;DHT22;41095;53.090;6.692;2023-05-10T06:42:58;13.30;99.90
53752;DHT22;41095;53.090;6.692;2023-05-10T06:45:24;13.20;99.90
53752;DHT22;41095;53.090;6.692;2023-05-10T06:47:50;13.20;99.90
53752;DHT22;41095;53.090;6.692;2023-05-10T06:50:15;13.20;99.90
53752;DHT22;41095;53.090;6.692;2023-05-10T06:52:41;13.10;99.90
53752;DHT22;41095;53.090;6.692;2023-05-10T06:55:08;13.10;99.90
53752;DHT22;41095;53.090;6.692;2023-05-10T06:57:34;13.20;99.90
53752;DHT22;41095;53.090;6.692;2023-05-10T07:00:00;13.20;99.90
53752;DHT22;41095;53.090;6.692;2023-05-10T07:02:26;13.10;99.90
53752;DHT22;41095;53.090;6.692;2023-05-10T07:04:52;13.10;99.90
53752;DHT22;41095;53.090;6.692;2023-05-10T07:07:18;13.20;99.90
53752;DHT22;41095;53.090;6.692;2023-05-10T07:09:44;13.20;99.90
53752;DHT22;41095;53.090;6.692;2023-05-10T07:12:10;13.10;99.90
53752;DHT22;41095;53.090;6.692;2023-05-10T07:14:36;13.10;99.90
53752;DHT22;41095;53.090;6.692;2023-05-10T07:17:01;13.70;99.90
53752;DHT22;41095;53.090;6.692;2023-05-10T07:19:27;13.20;99.90
53752;DHT22;41095;53.090;6.692;2023-05-10T07:21:54;13.10;99.90
53752;DHT22;41095;53.090;6.692;2023-05-10T07:24:20;13.20;99.90
53752;DHT22;41095;53.090;6.692;2023-05-10T07:26:46;13.10;99.90
53752;DHT22;41095;53.090;6.692;2023-05-10T07:29:12;13.20;99.90
53752;DHT22;41095;53.090;6.692;2023-05-10T07:31:38;13.20;99.90
53752;DHT22;41095;53.090;6.692;2023-05-10T07:34:03;13.20;99.90
53752;DHT22;41095;53.090;6.692;2023-05-10T07:36:29;13.30;99.90
53752;DHT22;41095;53.090;6.692;2023-05-10T07:38:54;13.30;99.90
53752;DHT22;41095;53.090;6.692;2023-05-10T07:41:21;13.40;99.90
53752;DHT22;41095;53.090;6.692;2023-05-10T07:43:47;13.50;99.90
53752;DHT22;41095;53.090;6.692;2023-05-10T07:46:13;13.60;99.90
53752;DHT22;41095;53.090;6.692;2023-05-10T07:48:39;13.70;99.90
53752;DHT22;41095;53.090;6.692;2023-05-10T07:51:04;13.80;99.90
53752;DHT22;41095;53.090;6.692;2023-05-10T07:53:32;14.00;99.90
53752;DHT22;41095;53.090;6.692;2023-05-10T07:55:58;14.00;99.90
53752;DHT22;41095;53.090;6.692;2023-05-10T07:58:24;14.00;99.90
53752;DHT22;41095;53.090;6.692;2023-05-10T08:00:50;13.80;99.90
53752;DHT22;41095;53.090;6.692;2023-05-10T08:03:16;13.80;99.90
53752;DHT22;41095;53.090;6.692;2023-05-10T08:05:42;13.80;99.90
53752;DHT22;41095;53.090;6.692;2023-05-10T08:08:07;13.80;99.90
53752;DHT22;41095;53.090;6.692;2023-05-10T08:10:33;13.70;99.90
53752;DHT22;41095;53.090;6.692;2023-05-10T08:12:59;13.70;99.90
53752;DHT22;41095;53.090;6.692;2023-05-10T08:15:24;13.70;99.90
53752;DHT22;41095;53.090;6.692;2023-05-10T08:17:53;13.70;99.90
53752;DHT22;41095;53.090;6.692;2023-05-10T08:20:20;13.70;99.90
53752;DHT22;41095;53.090;6.692;2023-05-10T08:22:46;13.60;99.90
53752;DHT22;41095;53.090;6.692;2023-05-10T08:25:12;13.60;99.90
53752;DHT22;41095;53.090;6.692;2023-05-10T08:27:37;13.70;99.90
53752;DHT22;41095;53.090;6.692;2023-05-10T08:30:03;13.70;99.90
53752;DHT22;41095;53.090;6.692;2023-05-10T08:32:29;13.70;99.90
53752;DHT22;41095;53.090;6.692;2023-05-10T08:34:55;13.70;99.90
53752;DHT22;41095;53.090;6.692;2023-05-10T08:37:23;13.60;99.90
53752;DHT22;41095;53.090;6.692;2023-05-10T08:39:48;13.60;99.90
53752;DHT22;41095;53.090;6.692;2023-05-10T08:42:16;13.60;99.90
53752;DHT22;41095;53.090;6.692;2023-05-10T08:44:46;13.70;99.90
53752;DHT22;41095;53.090;6.692;2023-05-10T08:47:13;14.00;99.90
53752;DHT22;41095;53.090;6.692;2023-05-10T08:49:41;13.70;99.90
53752;DHT22;41095;53.090;6.692;2023-05-10T08:52:10;13.70;99.90
53752;DHT22;41095;53.090;6.692;2023-05-10T08:54:37;13.70;99.90
53752;DHT22;41095;53.090;6.692;2023-05-10T08:57:03;13.70;99.90
53752;DHT22;41095;53.090;6.692;2023-05-10T08:59:29;13.70;99.90
53752;DHT22;41095;53.090;6.692;2023-05-10T09:01:58;13.70;99.90
53752;DHT22;41095;53.090;6.692;2023-05-10T09:04:25;13.80;99.90
53752;DHT22;41095;53.090;6.692;2023-05-10T09:06:51;13.80;99.90
53752;DHT22;41095;53.090;6.692;2023-05-10T09:09:17;13.80;99.90
53752;DHT22;41095;53.090;6.692;2023-05-10T09:11:44;13.90;99.90
53752;DHT22;41095;53.090;6.692;2023-05-10T09:14:11;13.90;99.90
53752;DHT22;41095;53.090;6.692;2023-05-10T09:16:38;14.00;99.90
53752;DHT22;41095;53.090;6.692;2023-05-10T09:19:03;14.00;99.90
53752;DHT22;41095;53.090;6.692;2023-05-10T09:21:30;14.00;99.90
53752;DHT22;41095;53.090;6.692;2023-05-10T09:23:56;14.10;99.90
53752;DHT22;41095;53.090;6.692;2023-05-10T09:26:23;14.10;99.90
53752;DHT22;41095;53.090;6.692;2023-05-10T09:29:02;14.20;99.90
53752;DHT22;41095;53.090;6.692;2023-05-10T09:31:48;14.20;99.90
53752;DHT22;41095;53.090;6.692;2023-05-10T09:34:17;14.20;99.90
53752;DHT22;41095;53.090;6.692;2023-05-10T09:36:57;14.20;99.90
53752;DHT22;41095;53.090;6.692;2023-05-10T09:39:33;14.20;99.90
53752;DHT22;41095;53.090;6.692;2023-05-10T09:42:04;14.30;99.90
53752;DHT22;41095;53.090;6.692;2023-05-10T09:44:31;14.30;99.90
53752;DHT22;41095;53.090;6.692;2023-05-10T09:46:59;14.30;99.90
53752;DHT22;41095;53.090;6.692;2023-05-10T09:49:25;14.40;99.90
53752;DHT22;41095;53.090;6.692;2023-05-10T09:52:07;14.40;99.90
53752;DHT22;41095;53.090;6.692;2023-05-10T09:54:33;14.30;99.90
53752;DHT22;41095;53.090;6.692;2023-05-10T09:56:59;14.30;99.90
53752;DHT22;41095;53.090;6.692;2023-05-10T09:59:27;14.30;99.90
53752;DHT22;41095;53.090;6.692;2023-05-10T10:01:56;14.30;99.90
53752;DHT22;41095;53.090;6.692;2023-05-10T10:04:22;14.40;99.90
53752;DHT22;41095;53.090;6.692;2023-05-10T10:06:58;14.60;99.90
53752;DHT22;41095;53.090;6.692;2023-05-10T10:09:25;14.90;99.90
53752;DHT22;41095;53.090;6.692;2023-05-10T10:11:51;15.10;99.90
53752;DHT22;41095;53.090;6.692;2023-05-10T10:14:18;15.40;99.90
53752;DHT22;41095;53.090;6.692;2023-05-10T10:16:44;15.50;99.90
53752;DHT22;41095;53.090;6.692;2023-05-10T10:19:10;15.50;99.90
53752;DHT22;41095;53.090;6.692;2023-05-10T10:21:36;15.40;99.90
53752;DHT22;41095;53.090;6.692;2023-05-10T10:24:02;15.40;99.90
53752;DHT22;41095;53.090;6.692;2023-05-10T10:26:30;15.40;99.90
53752;DHT22;41095;53.090;6.692;2023-05-10T10:29:13;15.50;99.90
53752;DHT22;41095;53.090;6.692;2023-05-10T10:34:35;15.50;99.90
53752;DHT22;41095;53.090;6.692;2023-05-10T10:37:05;15.40;99.90
53752;DHT22;41095;53.090;6.692;2023-05-10T10:39:32;15.40;99.90
53752;DHT22;41095;53.090;6.692;2023-05-10T10:41:58;15.40;99.90
53752;DHT22;41095;53.090;6.692;2023-05-10T10:52:22;16.00;99.90
53752;DHT22;41095;53.090;6.692;2023-05-10T10:57:19;16.20;99.90
53752;DHT22;41095;53.090;6.692;2023-05-10T10:59:47;16.10;99.90
53752;DHT22;41095;53.090;6.692;2023-05-10T11:02:32;16.00;99.90
53752;DHT22;41095;53.090;6.692;2023-05-10T11:04:58;15.80;99.90
53752;DHT22;41095;53.090;6.692;2023-05-10T11:07:24;15.70;99.90
53752;DHT22;41095;53.090;6.692;2023-05-10T11:09:50;15.60;99.90
53752;DHT22;41095;53.090;6.692;2023-05-10T11:12:17;15.50;99.90
53752;DHT22;41095;53.090;6.692;2023-05-10T11:14:42;15.40;99.90
53752;DHT22;41095;53.090;6.692;2023-05-10T11:17:24;15.40;99.90
53752;DHT22;41095;53.090;6.692;2023-05-10T11:20:10;15.30;99.90
53752;DHT22;41095;53.090;6.692;2023-05-10T11:22:54;15.40;99.90
53752;DHT22;41095;53.090;6.692;2023-05-10T11:25:26;15.40;99.90
53752;DHT22;41095;53.090;6.692;2023-05-10T11:27:52;15.50;99.90
53752;DHT22;41095;53.090;6.692;2023-05-10T11:30:17;15.60;99.90
53752;DHT22;41095;53.090;6.692;2023-05-10T11:32:44;15.60;99.90
53752;DHT22;41095;53.090;6.692;2023-05-10T11:35:11;15.70;99.90
53752;DHT22;41095;53.090;6.692;2023-05-10T11:37:38;15.70;99.90
53752;DHT22;41095;53.090;6.692;2023-05-10T11:40:10;15.60;99.90
53752;DHT22;41095;53.090;6.692;2023-05-10T11:42:39;15.60;99.90
53752;DHT22;41095;53.090;6.692;2023-05-10T11:45:05;15.60;99.90
53752;DHT22;41095;53.090;6.692;2023-05-10T11:47:31;15.50;99.90
53752;DHT22;41095;53.090;6.692;2023-05-10T11:49:57;15.50;99.90
53752;DHT22;41095;53.090;6.692;2023-05-10T11:52:23;15.50;99.90
53752;DHT22;41095;53.090;6.692;2023-05-10T11:54:54;15.40;99.90
53752;DHT22;41095;53.090;6.692;2023-05-10T11:57:20;15.40;99.90
53752;DHT22;41095;53.090;6.692;2023-05-10T11:59:47;15.40;99.90
53752;DHT22;41095;53.090;6.692;2023-05-10T12:02:13;15.40;99.90
53752;DHT22;41095;53.090;6.692;2023-05-10T12:04:39;15.40;99.90
53752;DHT22;41095;53.090;6.692;2023-05-10T12:07:05;15.40;99.90
53752;DHT22;41095;53.090;6.692;2023-05-10T12:09:31;15.40;99.90
53752;DHT22;41095;53.090;6.692;2023-05-10T12:11:57;15.50;99.90
53752;DHT22;41095;53.090;6.692;2023-05-10T12:14:22;15.60;99.90
53752;DHT22;41095;53.090;6.692;2023-05-10T12:16:49;15.70;99.90
53752;DHT22;41095;53.090;6.692;2023-05-10T12:19:19;15.80;99.90
53752;DHT22;41095;53.090;6.692;2023-05-10T12:21:45;15.90;99.90
53752;DHT22;41095;53.090;6.692;2023-05-10T12:24:12;16.00;99.90
53752;DHT22;41095;53.090;6.692;2023-05-10T12:26:39;16.00;99.90
53752;DHT22;41095;53.090;6.692;2023-05-10T12:29:18;16.00;99.90
53752;DHT22;41095;53.090;6.692;2023-05-10T12:31:55;15.90;99.90
53752;DHT22;41095;53.090;6.692;2023-05-10T12:34:34;15.90;99.90
53752;DHT22;41095;53.090;6.692;2023-05-10T12:37:02;15.90;99.90
53752;DHT22;41095;53.090;6.692;2023-05-10T12:39:40;15.80;99.90
53752;DHT22;41095;53.090;6.692;2023-05-10T12:42:07;15.80;99.90
53752;DHT22;41095;53.090;6.692;2023-05-10T12:44:33;15.80;99.90
53752;DHT22;41095;53.090;6.692;2023-05-10T12:46:59;15.90;99.90
53752;DHT22;41095;53.090;6.692;2023-05-10T12:49:25;15.90;99.90
53752;DHT22;41095;53.090;6.692;2023-05-10T12:51:50;16.00;99.90
53752;DHT22;41095;53.090;6.692;2023-05-10T12:54:16;15.90;99.90
53752;DHT22;41095;53.090;6.692;2023-05-10T12:56:43;16.00;99.90
53752;DHT22;41095;53.090;6.692;2023-05-10T12:59:08;16.00;99.90
53752;DHT22;41095;53.090;6.692;2023-05-10T13:01:34;16.10;99.90
53752;DHT22;41095;53.090;6.692;2023-05-10T13:04:00;16.20;99.90
53752;DHT22;41095;53.090;6.692;2023-05-10T13:06:25;16.30;99.90
53752;DHT22;41095;53.090;6.692;2023-05-10T13:08:51;16.50;99.90
53752;DHT22;41095;53.090;6.692;2023-05-10T13:11:17;16.50;99.90
53752;DHT22;41095;53.090;6.692;2023-05-10T13:13:45;16.50;99.90
53752;DHT22;41095;53.090;6.692;2023-05-10T13:16:10;16.50;99.90
53752;DHT22;41095;53.090;6.692;2023-05-10T13:18:36;16.60;99.90
53752;DHT22;41095;53.090;6.692;2023-05-10T13:21:02;16.50;99.90
53752;DHT22;41095;53.090;6.692;2023-05-10T13:23:29;16.50;99.90
53752;DHT22;41095;53.090;6.692;2023-05-10T13:25:55;16.40;99.90
53752;DHT22;41095;53.090;6.692;2023-05-10T13:28:20;16.30;99.90
53752;DHT22;41095;53.090;6.692;2023-05-10T13:30:46;16.30;99.90
53752;DHT22;41095;53.090;6.692;2023-05-10T13:33:12;16.40;99.90
53752;DHT22;41095;53.090;6.692;2023-05-10T13:35:37;16.40;99.90
53752;DHT22;41095;53.090;6.692;2023-05-10T13:38:03;16.40;99.90
53752;DHT22;41095;53.090;6.692;2023-05-10T13:40:28;16.30;99.90
53752;DHT22;41095;53.090;6.692;2023-05-10T13:42:54;16.30;99.90
53752;DHT22;41095;53.090;6.692;2023-05-10T13:45:20;16.30;99.90
53752;DHT22;41095;53.090;6.692;2023-05-10T13:47:46;16.40;99.90
53752;DHT22;41095;53.090;6.692;2023-05-10T13:50:11;16.40;99.90
53752;DHT22;41095;53.090;6.692;2023-05-10T13:52:37;16.50;99.90
53752;DHT22;41095;53.090;6.692;2023-05-10T13:55:03;16.50;99.90
53752;DHT22;41095;53.090;6.692;2023-05-10T13:57:29;16.60;99.90
53752;DHT22;41095;53.090;6.692;2023-05-10T13:59:55;16.50;99.90
53752;DHT22;41095;53.090;6.692;2023-05-10T14:02:22;16.50;99.90
53752;DHT22;41095;53.090;6.692;2023-05-10T14:04:48;16.50;99.90
53752;DHT22;41095;53.090;6.692;2023-05-10T14:07:14;16.40;99.90
53752;DHT22;41095;53.090;6.692;2023-05-10T14:09:39;16.40;99.90
53752;DHT22;41095;53.090;6.692;2023-05-10T14:12:05;16.40;99.90
53752;DHT22;41095;53.090;6.692;2023-05-10T14:14:31;16.30;99.90
53752;DHT22;41095;53.090;6.692;2023-05-10T14:16:56;16.20;99.90
53752;DHT22;41095;53.090;6.692;2023-05-10T14:19:22;16.10;99.90
53752;DHT22;41095;53.090;6.692;2023-05-10T14:21:48;16.10;99.90
53752;DHT22;41095;53.090;6.692;2023-05-10T14:24:13;16.10;99.90
53752;DHT22;41095;53.090;6.692;2023-05-10T14:26:39;16.00;99.90
53752;DHT22;41095;53.090;6.692;2023-05-10T14:29:05;16.00;99.90
53752;DHT22;41095;53.090;6.692;2023-05-10T14:31:31;16.00;99.90
53752;DHT22;41095;53.090;6.692;2023-05-10T14:33:56;15.90;99.90
53752;DHT22;41095;53.090;6.692;2023-05-10T14:36:23;15.90;99.90
53752;DHT22;41095;53.090;6.692;2023-05-10T14:38:48;16.00;99.90
53752;DHT22;41095;53.090;6.692;2023-05-10T14:41:15;16.00;99.90
53752;DHT22;41095;53.090;6.692;2023-05-10T14:43:43;16.10;99.90
53752;DHT22;41095;53.090;6.692;2023-05-10T14:46:08;16.10;99.90
53752;DHT22;41095;53.090;6.692;2023-05-10T14:48:34;16.10;99.90
53752;DHT22;41095;53.090;6.692;2023-05-10T14:51:00;16.10;99.90
53752;DHT22;41095;53.090;6.692;2023-05-10T14:53:26;16.20;99.90
53752;DHT22;41095;53.090;6.692;2023-05-10T14:55:51;16.20;99.90
53752;DHT22;41095;53.090;6.692;2023-05-10T14:58:17;16.20;99.90
53752;DHT22;41095;53.090;6.692;2023-05-10T15:00:43;16.30;99.90
53752;DHT22;41095;53.090;6.692;2023-05-10T15:03:09;16.30;99.90
53752;DHT22;41095;53.090;6.692;2023-05-10T15:05:35;16.20;99.90
53752;DHT22;41095;53.090;6.692;2023-05-10T15:08:03;16.20;99.90
53752;DHT22;41095;53.090;6.692;2023-05-10T15:10:28;16.10;99.90
53752;DHT22;41095;53.090;6.692;2023-05-10T15:12:54;16.10;99.90
53752;DHT22;41095;53.090;6.692;2023-05-10T15:15:20;16.00;99.90
53752;DHT22;41095;53.090;6.692;2023-05-10T15:17:45;16.00;99.90
53752;DHT22;41095;53.090;6.692;2023-05-10T15:20:11;16.00;99.90
53752;DHT22;41095;53.090;6.692;2023-05-10T15:22:37;16.10;99.90
53752;DHT22;41095;53.090;6.692;2023-05-10T15:25:04;16.20;99.90
53752;DHT22;41095;53.090;6.692;2023-05-10T15:27:29;16.20;99.90
53752;DHT22;41095;53.090;6.692;2023-05-10T15:29:55;16.30;99.90
53752;DHT22;41095;53.090;6.692;2023-05-10T15:32:21;16.40;99.90
53752;DHT22;41095;53.090;6.692;2023-05-10T15:34:47;16.40;99.90
53752;DHT22;41095;53.090;6.692;2023-05-10T15:37:12;16.50;99.90
53752;DHT22;41095;53.090;6.692;2023-05-10T15:39:38;16.40;99.90
53752;DHT22;41095;53.090;6.692;2023-05-10T15:42:04;16.40;99.90
53752;DHT22;41095;53.090;6.692;2023-05-10T15:44:29;16.40;99.90
53752;DHT22;41095;53.090;6.692;2023-05-10T15:46:55;16.30;99.90
53752;DHT22;41095;53.090;6.692;2023-05-10T15:49:21;16.40;99.90
53752;DHT22;41095;53.090;6.692;2023-05-10T15:51:47;16.30;99.90
53752;DHT22;41095;53.090;6.692;2023-05-10T15:54:12;16.30;99.90
53752;DHT22;41095;53.090;6.692;2023-05-10T15:56:38;16.30;99.90
53752;DHT22;41095;53.090;6.692;2023-05-10T15:59:04;16.30;99.90
53752;DHT22;41095;53.090;6.692;2023-05-10T16:01:30;16.30;99.90
53752;DHT22;41095;53.090;6.692;2023-05-10T16:03:57;16.30;99.90
53752;DHT22;41095;53.090;6.692;2023-05-10T16:06:22;16.30;99.90